createdAt,value
2023-01-04T00:02:40.219Z,5.53
2023-01-04T00:05:43.959Z,5.80
2023-01-04T00:08:47.759Z,3.63
2023-01-04T00:11:52.821Z,2.40
2023-01-04T00:14:56.421Z,4.13
2023-01-04T00:18:00.098Z,3.97
2023-01-04T00:21:10.417Z,5.20
2023-01-04T00:24:15.440Z,6.10
2023-01-04T00:27:20.504Z,3.57
2023-01-04T00:30:24.295Z,5.57
2023-01-04T00:33:28.339Z,3.13
2023-01-04T00:36:32.937Z,3.27
2023-01-04T00:39:36.534Z,2.53
2023-01-04T00:42:41.586Z,3.53
2023-01-04T00:45:45.807Z,1.87
2023-01-04T00:48:50.819Z,2.80
2023-01-04T00:51:54.716Z,3.80
2023-01-04T00:54:58.360Z,5.50
2023-01-04T00:58:03.401Z,2.77
2023-01-04T01:01:08.076Z,3.10
2023-01-04T01:04:15.521Z,4.57
2023-01-04T01:07:19.259Z,8.57
2023-01-04T01:10:22.936Z,2.57
2023-01-04T01:13:28.264Z,3.37
2023-01-04T01:16:53.517Z,1.63
2023-01-04T01:19:55.926Z,5.10
2023-01-04T01:22:59.565Z,3.20
2023-01-04T01:26:03.723Z,4.93
2023-01-04T01:29:08.721Z,6.63
2023-01-04T01:32:12.354Z,3.27
2023-01-04T01:35:16.002Z,3.67
2023-01-04T01:38:20.033Z,2.33
2023-01-04T01:41:26.682Z,5.97
2023-01-04T01:45:00.803Z,2.53
2023-01-04T01:48:12.450Z,1.27
2023-01-04T01:51:18.811Z,4.77
2023-01-04T01:54:27.205Z,4.33
2023-01-04T01:57:35.686Z,4.33
2023-01-04T02:00:41.013Z,4.17
2023-01-04T02:03:45.455Z,3.60
2023-01-04T02:06:54.353Z,2.90
2023-01-04T02:09:59.639Z,3.83
2023-01-04T02:13:09.307Z,2.53
2023-01-04T02:16:26.861Z,6.03
2023-01-04T02:19:58.841Z,13.43
2023-01-04T02:23:56.384Z,3.20
2023-01-04T02:27:45.629Z,3.03
2023-01-04T02:31:17.289Z,5.53
2023-01-04T02:34:34.138Z,6.27
2023-01-04T02:37:47.803Z,1.23
2023-01-04T02:41:05.256Z,4.13
2023-01-04T02:44:35.167Z,3.80
2023-01-04T02:47:59.365Z,3.83
2023-01-04T02:51:03.045Z,2.37
2023-01-04T02:54:11.984Z,4.30
2023-01-04T02:57:38.722Z,1.97
2023-01-04T03:01:16.995Z,2.07
2023-01-04T03:05:05.296Z,3.30
2023-01-04T03:08:18.662Z,4.87
2023-01-04T03:11:40.058Z,1.53
2023-01-04T03:15:00.408Z,4.30
2023-01-04T03:18:14.900Z,5.67
2023-01-04T03:21:23.936Z,3.63
2023-01-04T03:24:45.289Z,3.00
2023-01-04T03:28:09.829Z,5.00
2023-01-04T03:31:38.433Z,4.37
2023-01-04T03:35:00.232Z,6.63
2023-01-04T03:38:29.322Z,3.80
2023-01-04T03:42:02.401Z,4.17
2023-01-04T03:45:35.397Z,3.80
2023-01-04T03:48:47.164Z,5.83
2023-01-04T03:51:57.957Z,3.83
2023-01-04T03:55:07.249Z,4.00
2023-01-04T03:58:11.715Z,5.37
2023-01-04T04:01:15.668Z,6.27
2023-01-04T04:04:37.056Z,4.20
2023-01-04T04:07:58.429Z,5.13
2023-01-04T04:11:19.004Z,2.97
2023-01-04T04:14:22.602Z,6.43
2023-01-04T04:17:26.401Z,3.50
2023-01-04T04:20:30.324Z,6.93
2023-01-04T04:23:34.062Z,4.17
2023-01-04T04:26:39.058Z,5.87
2023-01-04T04:29:42.702Z,3.63
2023-01-04T04:32:46.592Z,6.00
2023-01-04T04:35:52.890Z,3.63
2023-01-04T04:38:56.559Z,2.63
2023-01-04T04:42:01.543Z,4.33
2023-01-04T04:45:05.916Z,3.37
2023-01-04T04:48:09.705Z,3.40
2023-01-04T04:51:13.470Z,5.77
2023-01-04T04:54:20.551Z,4.80
2023-01-04T04:57:25.557Z,3.87
2023-01-04T05:00:29.377Z,5.37
2023-01-04T05:03:33.246Z,6.47
2023-01-04T05:06:36.895Z,3.47
2023-01-04T05:09:40.492Z,3.57
2023-01-04T05:13:00.640Z,2.70
2023-01-04T05:16:06.921Z,3.63
2023-01-04T05:19:10.863Z,4.87
2023-01-04T05:22:14.546Z,4.00
2023-01-04T05:25:18.818Z,6.47
2023-01-04T05:28:24.157Z,5.87
2023-01-04T05:31:27.011Z,4.40
2023-01-04T05:34:30.736Z,3.70
2023-01-04T05:37:34.532Z,4.77
2023-01-04T05:40:38.175Z,4.80
2023-01-04T05:43:43.224Z,3.73
2023-01-04T05:46:46.866Z,4.07
2023-01-04T05:49:50.633Z,4.03
2023-01-04T05:52:54.457Z,3.97
2023-01-04T05:55:58.096Z,6.37
2023-01-04T05:59:03.117Z,5.00
2023-01-04T06:02:08.872Z,4.50
2023-01-04T06:05:13.587Z,6.27
2023-01-04T06:08:17.190Z,4.80
2023-01-04T06:11:27.221Z,5.03
2023-01-04T06:14:32.994Z,5.60
2023-01-04T06:17:37.757Z,6.20
2023-01-04T06:20:41.349Z,8.03
2023-01-04T06:23:44.973Z,5.70
2023-01-04T06:26:49.526Z,7.17
2023-01-04T06:29:55.108Z,6.73
2023-01-04T06:32:58.687Z,5.57
2023-01-04T06:36:03.180Z,6.20
2023-01-04T06:39:07.683Z,8.37
2023-01-04T06:42:31.493Z,6.80
2023-01-04T06:45:36.675Z,7.60
2023-01-04T06:48:40.328Z,8.93
2023-01-04T06:51:44.193Z,7.53
2023-01-04T06:54:48.169Z,6.53
2023-01-04T06:57:56.318Z,6.47
2023-01-04T07:01:04.765Z,6.50
2023-01-04T07:04:08.656Z,7.47
2023-01-04T07:07:12.826Z,8.00
2023-01-04T07:10:16.557Z,7.60
2023-01-04T07:13:20.231Z,6.37
2023-01-04T07:16:25.759Z,6.07
2023-01-04T07:19:29.522Z,6.53
2023-01-04T07:22:33.210Z,5.27
2023-01-04T07:25:37.417Z,5.33
2023-01-04T07:28:58.681Z,5.20
2023-01-04T07:32:05.728Z,5.07
2023-01-04T07:35:12.597Z,4.93
2023-01-04T07:38:16.244Z,5.10
2023-01-04T07:41:20.646Z,4.20
2023-01-04T07:44:25.726Z,3.87
2023-01-04T07:47:30.873Z,5.63
2023-01-04T07:50:34.499Z,3.50
2023-01-04T07:53:38.196Z,3.90
2023-01-04T07:56:42.043Z,3.00
2023-01-04T07:59:45.831Z,3.77
2023-01-04T08:02:52.191Z,2.80
2023-01-04T08:05:55.916Z,3.00
2023-01-04T08:09:00.563Z,4.10
2023-01-04T08:12:05.303Z,2.90
2023-01-04T08:15:10.076Z,3.13
2023-01-04T08:18:15.046Z,4.17
2023-01-04T08:21:18.619Z,2.50
2023-01-04T08:24:22.986Z,2.40
2023-01-04T08:27:26.576Z,3.07
2023-01-04T08:30:30.350Z,2.10
2023-01-04T08:33:36.993Z,2.00
2023-01-04T08:36:49.667Z,2.00
2023-01-04T08:39:53.311Z,1.77
2023-01-04T08:42:56.995Z,1.77
2023-01-04T08:46:00.999Z,1.80
2023-01-04T08:49:06.039Z,1.50
2023-01-04T08:52:11.845Z,1.57
2023-01-04T08:55:21.516Z,2.27
2023-01-04T08:58:27.046Z,1.40
2023-01-04T09:01:32.630Z,2.07
2023-01-04T09:04:38.190Z,1.80
2023-01-04T09:07:41.944Z,2.33
2023-01-04T09:10:45.633Z,1.23
2023-01-04T09:13:50.140Z,1.60
2023-01-04T09:16:53.858Z,1.43
2023-01-04T09:19:58.945Z,3.80
2023-01-04T09:23:02.515Z,1.50
2023-01-04T09:26:10.198Z,1.47
2023-01-04T09:29:13.810Z,1.67
2023-01-04T09:32:19.062Z,1.80
2023-01-04T09:35:25.423Z,3.43
2023-01-04T09:38:29.091Z,1.40
2023-01-04T09:41:38.009Z,1.20
2023-01-04T09:45:22.413Z,1.40
2023-01-04T09:48:24.825Z,1.10
2023-01-04T09:51:38.497Z,1.37
2023-01-04T09:54:51.587Z,1.80
2023-01-04T09:58:01.378Z,2.40
2023-01-04T10:01:12.075Z,1.40
2023-01-04T10:04:25.650Z,1.27
2023-01-04T10:07:34.651Z,2.13
2023-01-04T10:10:51.855Z,1.50
2023-01-04T10:14:30.213Z,1.60
2023-01-04T10:19:36.969Z,2.83
2023-01-04T10:21:41.551Z,1.50
2023-01-04T10:25:01.698Z,1.90
2023-01-04T10:28:23.661Z,1.30
2023-01-04T10:31:40.607Z,1.83
2023-01-04T10:34:47.497Z,1.37
2023-01-04T10:37:59.083Z,1.17
2023-01-04T10:41:13.505Z,1.20
2023-01-04T10:44:28.491Z,1.20
2023-01-04T10:47:44.160Z,1.10
2023-01-04T10:50:56.542Z,3.03
2023-01-04T10:54:07.897Z,1.20
2023-01-04T10:57:20.517Z,0.83
2023-01-04T11:00:31.420Z,1.17
2023-01-04T11:03:43.385Z,1.07
2023-01-04T11:06:57.508Z,0.77
2023-01-04T11:10:09.405Z,0.67
2023-01-04T11:13:15.525Z,0.50
2023-01-04T11:16:19.317Z,0.97
2023-01-04T11:19:23.420Z,0.53
2023-01-04T11:22:37.420Z,1.90
2023-01-04T11:25:53.831Z,0.60
2023-01-04T11:29:07.273Z,1.37
2023-01-04T11:32:22.550Z,0.80
2023-01-04T11:35:42.944Z,1.80
2023-01-04T11:38:57.137Z,0.80
2023-01-04T11:42:04.522Z,0.83
2023-01-04T11:45:20.981Z,1.23
2023-01-04T11:48:36.602Z,0.50
2023-01-04T11:51:43.310Z,0.60
2023-01-04T11:54:46.894Z,0.70
2023-01-04T11:58:07.271Z,0.70
2023-01-04T12:01:24.882Z,0.70
2023-01-04T12:04:32.507Z,0.90
2023-01-04T12:07:39.626Z,1.10
2023-01-04T12:10:44.321Z,1.17
2023-01-04T12:13:48.303Z,0.73
2023-01-04T12:17:06.187Z,0.80
2023-01-04T12:20:19.920Z,0.90
2023-01-04T12:23:24.567Z,1.37
2023-01-04T12:26:28.566Z,0.90
2023-01-04T12:29:55.616Z,1.20
2023-01-04T12:33:00.816Z,1.57
2023-01-04T12:36:07.010Z,2.27
2023-01-04T12:39:43.967Z,1.60
2023-01-04T12:43:26.275Z,1.50
2023-01-04T12:47:01.123Z,1.57
2023-01-04T12:50:11.041Z,1.60
2023-01-04T12:53:54.149Z,1.57
2023-01-04T12:57:36.862Z,2.07
2023-01-04T13:01:24.984Z,1.50
2023-01-04T13:04:41.625Z,1.40
2023-01-04T13:07:51.401Z,1.40
2023-01-04T13:10:59.684Z,1.03
2023-01-04T13:14:10.299Z,1.20
2023-01-04T13:17:22.174Z,1.07
2023-01-04T13:20:30.702Z,1.47
2023-01-04T13:23:36.330Z,6.23
2023-01-04T13:26:45.973Z,1.23
2023-01-04T13:29:51.806Z,1.23
2023-01-04T13:33:24.869Z,1.33
2023-01-04T13:36:19.212Z,1.73
2023-01-04T13:39:25.466Z,1.40
2023-01-04T13:42:33.437Z,1.50
2023-01-04T13:46:08.662Z,3.40
2023-01-04T13:49:17.630Z,1.97
2023-01-04T13:55:53.335Z,1.70
2023-01-04T13:58:57.371Z,1.50
2023-01-04T14:02:01.196Z,2.87
2023-01-04T14:05:05.442Z,3.83
2023-01-04T14:08:13.180Z,6.87
2023-01-04T14:11:42.044Z,6.70
2023-01-04T14:14:55.477Z,6.90
2023-01-04T14:17:59.245Z,2.10
2023-01-04T14:21:03.072Z,2.63
2023-01-04T14:28:49.125Z,1.50
2023-01-04T14:31:53.826Z,1.13
2023-01-04T14:34:57.787Z,1.03
2023-01-04T14:38:07.609Z,1.57
2023-01-04T14:41:22.320Z,1.73
2023-01-04T14:44:31.731Z,1.53
2023-01-04T14:47:35.485Z,3.27
2023-01-04T14:50:39.754Z,2.50
2023-01-04T14:53:43.522Z,2.47
2023-01-04T14:56:47.342Z,2.63
2023-01-04T14:59:52.435Z,3.00
2023-01-04T15:02:56.205Z,3.17
2023-01-04T15:06:00.174Z,3.53
2023-01-04T15:09:04.488Z,3.13
2023-01-04T15:12:08.212Z,3.87
2023-01-04T15:15:28.396Z,3.43
2023-01-04T15:18:32.193Z,5.90
2023-01-04T15:21:40.948Z,4.50
2023-01-04T15:24:45.059Z,6.77
2023-01-04T15:27:48.920Z,9.40
2023-01-04T15:30:54.003Z,6.57
2023-01-04T15:33:57.737Z,6.80
2023-01-04T15:37:01.395Z,7.90
2023-01-04T15:40:07.879Z,6.60
2023-01-04T15:43:11.922Z,9.53
2023-01-04T15:46:17.033Z,10.27
2023-01-04T15:49:20.704Z,13.40
2023-01-04T15:52:24.452Z,13.47
2023-01-04T15:55:34.325Z,10.17
2023-01-04T15:58:40.872Z,9.33
2023-01-04T16:01:46.317Z,10.97
2023-01-04T16:04:50.534Z,12.57
2023-01-04T16:07:54.360Z,12.57
2023-01-04T16:10:58.139Z,8.60
2023-01-04T16:14:01.947Z,10.90
2023-01-04T16:17:06.949Z,12.43
2023-01-04T16:20:13.732Z,11.13
2023-01-04T16:23:17.636Z,12.27
2023-01-04T16:26:21.705Z,14.57
2023-01-04T16:29:25.457Z,17.10
2023-01-04T16:32:30.523Z,14.47
2023-01-04T16:35:34.417Z,14.57
2023-01-04T16:38:39.340Z,12.17
2023-01-04T16:41:43.119Z,16.37
2023-01-04T16:44:46.776Z,12.83
2023-01-04T16:47:53.796Z,10.37
2023-01-04T16:50:57.365Z,12.23
2023-01-04T16:54:04.279Z,10.67
2023-01-04T16:57:07.922Z,16.73
2023-01-04T17:00:13.187Z,10.33
2023-01-04T17:03:18.187Z,9.70
2023-01-04T17:06:24.310Z,14.63
2023-01-04T17:09:27.910Z,15.87
2023-01-04T17:12:48.362Z,12.83
2023-01-04T17:15:53.108Z,13.20
2023-01-04T17:18:58.208Z,16.47
2023-01-04T17:22:02.000Z,12.67
2023-01-04T17:25:07.165Z,10.77
2023-01-04T17:28:10.807Z,18.30
2023-01-04T17:31:17.655Z,16.90
2023-01-04T17:34:23.524Z,11.83
2023-01-04T17:37:27.814Z,12.80
2023-01-04T17:40:31.666Z,14.73
2023-01-04T17:43:35.337Z,12.87
2023-01-04T17:46:39.888Z,14.47
2023-01-04T17:49:45.016Z,13.33
2023-01-04T17:52:50.783Z,11.87
2023-01-04T17:55:54.417Z,8.93
2023-01-04T17:59:02.783Z,9.37
2023-01-04T18:02:06.626Z,13.67
2023-01-04T18:05:12.186Z,8.87
2023-01-04T18:08:15.806Z,9.17
2023-01-04T18:11:19.457Z,14.97
2023-01-04T18:14:23.468Z,12.07
2023-01-04T18:17:27.154Z,12.30
2023-01-04T18:20:32.329Z,16.50
2023-01-04T18:23:35.969Z,18.10
2023-01-04T18:27:10.871Z,12.03
2023-01-04T18:30:04.239Z,15.53
2023-01-04T18:33:08.044Z,13.67
2023-01-04T18:36:13.694Z,14.00
2023-01-04T18:39:17.337Z,12.53
2023-01-04T18:42:20.967Z,14.77
2023-01-04T18:45:42.084Z,14.80
2023-01-04T18:48:51.272Z,11.67
2023-01-04T18:51:56.506Z,17.00
2023-01-04T18:55:00.155Z,13.57
2023-01-04T18:58:03.872Z,14.47
2023-01-04T19:01:10.518Z,13.47
2023-01-04T19:04:16.260Z,13.33
2023-01-04T19:07:21.303Z,11.73
2023-01-04T19:10:25.271Z,7.47
2023-01-04T19:13:30.584Z,12.67
2023-01-04T19:16:34.252Z,16.23
2023-01-04T19:19:38.339Z,8.40
2023-01-04T19:22:43.378Z,11.03
2023-01-04T19:25:47.614Z,15.63
2023-01-04T19:28:52.046Z,19.47
2023-01-04T19:31:57.195Z,14.03
2023-01-04T19:35:00.777Z,10.33
2023-01-04T19:38:06.216Z,16.03
2023-01-04T19:41:16.660Z,10.60
2023-01-04T19:44:20.301Z,12.13
2023-01-04T19:47:24.125Z,12.87
2023-01-04T19:50:27.718Z,13.40
2023-01-04T19:53:32.937Z,15.23
2023-01-04T19:56:36.551Z,12.13
2023-01-04T19:59:40.252Z,10.33
2023-01-04T20:02:44.105Z,13.73
2023-01-04T20:05:48.046Z,12.00
2023-01-04T20:08:53.213Z,19.23
2023-01-04T20:11:56.859Z,18.00
2023-01-04T20:15:00.487Z,16.33
2023-01-04T20:18:07.282Z,12.40
2023-01-04T20:21:17.425Z,16.63
2023-01-04T20:24:22.452Z,15.83
2023-01-04T20:27:26.174Z,16.77
2023-01-04T20:30:29.846Z,11.30
2023-01-04T20:33:33.937Z,15.87
2023-01-04T20:36:39.739Z,12.97
2023-01-04T20:39:44.776Z,11.23
2023-01-04T20:43:05.687Z,10.30
2023-01-04T20:46:14.513Z,14.00
2023-01-04T20:49:18.147Z,11.50
2023-01-04T20:52:21.800Z,11.13
2023-01-04T20:55:26.916Z,19.07
2023-01-04T20:58:30.590Z,8.93
2023-01-04T21:01:34.459Z,10.80
2023-01-04T21:04:38.239Z,9.83
2023-01-04T21:07:42.032Z,11.37
2023-01-04T21:10:47.053Z,11.63
2023-01-04T21:13:52.875Z,15.37
2023-01-04T21:16:56.535Z,12.73
2023-01-04T21:20:00.189Z,8.87
2023-01-04T21:23:03.814Z,13.57
2023-01-04T21:26:10.516Z,12.17
2023-01-04T21:29:14.237Z,12.87
2023-01-04T21:32:17.925Z,16.03
2023-01-04T21:35:21.690Z,17.03
2023-01-04T21:38:25.295Z,11.33
2023-01-04T21:41:30.568Z,11.70
2023-01-04T21:44:34.254Z,18.37
2023-01-04T21:47:38.939Z,15.87
2023-01-04T21:50:42.815Z,12.57
2023-01-04T21:53:46.422Z,17.10
2023-01-04T21:56:51.529Z,10.17
2023-01-04T21:59:55.241Z,11.47
2023-01-04T22:02:59.523Z,16.10
2023-01-04T22:06:03.578Z,14.67
2023-01-04T22:09:07.441Z,8.50
2023-01-04T22:12:12.477Z,8.93
2023-01-04T22:15:25.415Z,6.43
2023-01-04T22:18:29.142Z,9.50
2023-01-04T22:21:32.903Z,6.60
2023-01-04T22:24:38.280Z,10.67
2023-01-04T22:27:43.870Z,6.93
2023-01-04T22:30:47.518Z,7.80
2023-01-04T22:33:51.387Z,7.57
2023-01-04T22:36:55.103Z,10.80
2023-01-04T22:39:58.762Z,7.37
2023-01-04T22:43:03.878Z,12.47
2023-01-04T22:46:11.720Z,8.67
2023-01-04T22:49:15.428Z,10.50
2023-01-04T22:52:19.156Z,13.50
2023-01-04T22:55:23.802Z,21.67
2023-01-04T22:58:28.809Z,15.33
2023-01-04T23:01:34.982Z,18.03
2023-01-04T23:04:38.671Z,18.03
2023-01-04T23:07:42.325Z,11.97
2023-01-04T23:10:46.013Z,16.60
2023-01-04T23:13:52.558Z,14.83
2023-01-04T23:16:56.458Z,20.53
2023-01-04T23:20:00.157Z,14.07
2023-01-04T23:23:03.730Z,12.63
2023-01-04T23:26:09.605Z,9.43
2023-01-04T23:29:15.872Z,10.17
2023-01-04T23:32:19.465Z,14.07
2023-01-04T23:35:23.866Z,12.23
2023-01-04T23:38:27.472Z,14.83
2023-01-04T23:41:46.293Z,13.33
2023-01-04T23:44:51.666Z,14.97
2023-01-04T23:47:55.534Z,13.93
2023-01-04T23:50:59.378Z,11.10
2023-01-04T23:54:03.025Z,9.00
2023-01-04T23:57:06.705Z,11.27
